アティラウ の空港の天気 - METARとTAF

Atyrau Airport ( UATG / GUW ) - カザフスタン Atyrau
飛行場実況気象(Metar)
観測時間10/22 16:30 ORAT (10/22 11:30 UTC)
風向・風速北西 4m/s
視程10km以上
天気現象
なし
気温9℃
湿度43%
気圧1024hPa
METARUATG 221130Z 32004MPS 290V360 CAVOK 09/M03 Q1024 R32/CLRD70 NOSIG RMK QFE770/1027
過去の天気等 Google飛行場航空写真 Wunderground天気予報

過去48時間のMETAR

飛行場予報(TAF)
発表時間: 10/22 16:00 ORAT (10/22 11:00 UTC)
予報対象時間: 22日17時 ORAT ~ 23日17時 ORAT
風向・風速北北西 7m/s
視程10km以上
全天の4割程度の雲 雲底高度 1010m
22日19時 ORAT ~ 22日20時 ORAT に徐々に
風向・風速不定 3m/s
23日10時 ORAT ~ 23日12時 ORAT に徐々に
風向・風速南西 8m/s
TAF UATG 221100Z 2212/2312 34007MPS 9999 SCT033 TX18/2311Z TN01/2303Z
BECMG 2214/2215 VRB03MPS
BECMG 2305/2307 23008MPS